createdAt,value
2022-11-06T00:05:49.277Z,41.48
2022-11-06T00:13:16.544Z,41.5
2022-11-06T00:20:47.386Z,41.49
2022-11-06T00:28:24.558Z,41.5
2022-11-06T00:36:03.799Z,41.47
2022-11-06T00:43:52.967Z,41.49
2022-11-06T00:51:28.765Z,41.59
2022-11-06T00:59:16.052Z,41.52
2022-11-06T01:06:56.639Z,41.6
2022-11-06T01:14:33.035Z,41.68
2022-11-06T01:22:13.437Z,41.55
2022-11-06T01:29:49.012Z,41.69
2022-11-06T01:37:26.418Z,41.49
2022-11-06T01:45:17.284Z,41.57
2022-11-06T01:53:09.841Z,41.67
2022-11-06T02:01:07.130Z,41.51
2022-11-06T02:08:51.590Z,41.44
2022-11-06T02:16:52.897Z,41.54
2022-11-06T02:25:04.798Z,41.52
2022-11-06T02:33:17.065Z,41.57
2022-11-06T02:41:18.996Z,41.59
2022-11-06T02:49:27.013Z,41.31
2022-11-06T02:57:32.652Z,41.19
2022-11-06T03:05:33.478Z,41.04
2022-11-06T03:13:48.920Z,41.33
2022-11-06T03:22:03.385Z,41.4
2022-11-06T03:30:29.226Z,41.44
2022-11-06T03:38:43.446Z,41.45
2022-11-06T03:47:04.273Z,41.51
2022-11-06T03:55:18.380Z,41.44
2022-11-06T04:03:22.045Z,41.57
2022-11-06T04:11:24.864Z,41.53
2022-11-06T04:19:25.994Z,41.56
2022-11-06T04:27:50.082Z,41.61
2022-11-06T04:35:52.011Z,41.53
2022-11-06T04:44:32.241Z,41.65
2022-11-06T04:52:30.391Z,41.65
2022-11-06T05:00:25.068Z,41.72
2022-11-06T05:08:11.544Z,41.61
2022-11-06T05:15:59.800Z,40.74
2022-11-06T05:23:26.728Z,39.73
2022-11-06T05:30:10.583Z,38.75
2022-11-06T05:36:47.734Z,38.51
2022-11-06T05:43:21.520Z,38.43
2022-11-06T05:49:47.591Z,38.42
2022-11-06T05:56:12.681Z,38.37
2022-11-06T06:02:43.264Z,38.3
2022-11-06T06:09:08.879Z,38.41
2022-11-06T06:16:19.906Z,38.94
2022-11-06T06:23:58.281Z,39.29
2022-11-06T06:31:31.996Z,39.52
2022-11-06T06:39:02.443Z,39.96
2022-11-06T06:46:45.812Z,40.14
2022-11-06T06:54:27.951Z,40.33
2022-11-06T07:02:13.355Z,40.46
2022-11-06T07:09:44.917Z,40.56
2022-11-06T07:17:29.653Z,40.66
2022-11-06T07:25:01.645Z,40.67
2022-11-06T07:32:46.563Z,40.66
2022-11-06T07:40:25.039Z,40.6
2022-11-06T07:47:59.992Z,40.76
2022-11-06T07:55:42.802Z,40.8
2022-11-06T08:03:15.631Z,40.75
2022-11-06T08:11:02.461Z,40.97
2022-11-06T08:18:38.331Z,40.58
2022-11-06T08:26:23.943Z,40.16
2022-11-06T08:33:52.736Z,40.03
2022-11-06T08:40:55.653Z,39.86
2022-11-06T08:47:45.543Z,39.68
2022-11-06T08:54:39.626Z,39.84
2022-11-06T09:01:53.615Z,39.99
2022-11-06T09:09:39.700Z,40.28
2022-11-06T09:17:06.620Z,40.35
2022-11-06T09:25:04.832Z,40.42
2022-11-06T09:32:55.185Z,40.41
2022-11-06T09:40:26.368Z,40.48
2022-11-06T09:48:17.247Z,40.48
2022-11-06T09:56:31.572Z,40.5
2022-11-06T10:04:35.630Z,40.6
2022-11-06T10:12:24.753Z,40.64
2022-11-06T10:20:48.323Z,40.74
2022-11-06T10:29:19.729Z,40.74
2022-11-06T10:37:31.609Z,40.82
2022-11-06T10:45:31.726Z,40.84
2022-11-06T10:53:47.625Z,40.92
2022-11-06T11:02:04.335Z,40.9
2022-11-06T11:10:01.323Z,40.88
2022-11-06T11:17:53.523Z,40.78
2022-11-06T11:26:01.776Z,40.83
2022-11-06T11:34:01.615Z,40.67
2022-11-06T11:41:30.212Z,40.63
2022-11-06T11:49:06.798Z,40.59
2022-11-06T11:57:03.949Z,40.36
2022-11-06T12:04:09.235Z,40.1
2022-11-06T12:11:51.444Z,40.32
2022-11-06T12:19:49.136Z,40.64
2022-11-06T12:27:59.238Z,40.67
2022-11-06T12:35:53.640Z,40.68
2022-11-06T12:44:07.976Z,40.7
2022-11-06T12:52:17.003Z,40.65
2022-11-06T13:00:31.635Z,40.73
2022-11-06T13:08:49.626Z,40.63
2022-11-06T13:17:05.003Z,40.6
2022-11-06T13:25:10.713Z,40.26
2022-11-06T13:33:16.296Z,40.63
2022-11-06T13:41:27.320Z,40.77
2022-11-06T13:49:28.337Z,40.66
2022-11-06T13:57:32.387Z,40.79
2022-11-06T14:05:51.744Z,40.78
2022-11-06T14:13:45.108Z,40.71
2022-11-06T14:21:54.442Z,40.84
2022-11-06T14:29:39.939Z,40.87
2022-11-06T14:37:32.973Z,40.89
2022-11-06T14:45:37.740Z,40.94
2022-11-06T14:53:41.666Z,41.03
2022-11-06T15:01:52.138Z,40.96
2022-11-06T15:10:03.857Z,41
2022-11-06T15:17:46.636Z,41.12
2022-11-06T15:25:50.145Z,41.17
2022-11-06T15:34:09.594Z,41.32
2022-11-06T15:42:10.676Z,41.2
2022-11-06T15:50:14.655Z,41.22
2022-11-06T15:58:13.733Z,41.34
2022-11-06T16:06:10.336Z,41.31
2022-11-06T16:13:52.130Z,41.21
2022-11-06T16:21:57.568Z,41.19
2022-11-06T16:29:54.479Z,41.11
2022-11-06T16:37:53.096Z,41.19
2022-11-06T16:45:43.897Z,41.33
2022-11-06T16:53:49.577Z,41.45
2022-11-06T17:01:48.122Z,41.44
2022-11-06T17:09:54.782Z,41.28
2022-11-06T17:17:45.445Z,41.36
2022-11-06T17:25:35.988Z,41.34
2022-11-06T17:33:19.800Z,41.38
2022-11-06T17:41:05.177Z,41.39
2022-11-06T17:48:30.681Z,41.43
2022-11-06T17:56:10.574Z,41.43
2022-11-06T18:03:46.978Z,41.37
2022-11-06T18:11:29.502Z,41.42
2022-11-06T18:19:14.353Z,41.44
2022-11-06T18:27:02.877Z,41.44
2022-11-06T18:34:36.928Z,41.41
2022-11-06T18:42:14.278Z,41.44
2022-11-06T18:49:51.409Z,41.43
2022-11-06T18:57:25.056Z,41.46
2022-11-06T19:05:17.152Z,41.47
2022-11-06T19:13:09.164Z,41.44
2022-11-06T19:20:46.463Z,41.44
2022-11-06T19:28:36.050Z,41.46
2022-11-06T19:36:26.478Z,41.47
2022-11-06T19:44:10.203Z,41.45
2022-11-06T19:52:40.885Z,41.41
2022-11-06T20:00:11.942Z,41.5
2022-11-06T20:07:57.681Z,41.47
2022-11-06T20:15:36.112Z,41.34
2022-11-06T20:23:19.705Z,41.46
2022-11-06T20:30:55.008Z,41.43
2022-11-06T20:38:37.281Z,41.47
2022-11-06T20:46:09.489Z,41.33
2022-11-06T20:53:50.416Z,41.09
2022-11-06T21:01:41.787Z,41.24
2022-11-06T21:09:29.397Z,41.34
2022-11-06T21:17:09.977Z,41.29
2022-11-06T21:24:57.156Z,41.37
2022-11-06T21:32:30.387Z,41.41
2022-11-06T21:40:11.169Z,41.39
2022-11-06T21:48:32.756Z,41.42
2022-11-06T21:55:54.818Z,41.34
2022-11-06T22:03:44.431Z,41.4
2022-11-06T22:11:32.260Z,41.3
2022-11-06T22:19:14.361Z,41.35
2022-11-06T22:27:02.390Z,41.33
2022-11-06T22:34:48.122Z,41.39
2022-11-06T22:42:37.904Z,41.29
2022-11-06T22:50:21.239Z,41.36
2022-11-06T22:58:07.254Z,41.38
2022-11-06T23:05:52.845Z,41.32
2022-11-06T23:13:37.449Z,41.35
2022-11-06T23:21:23.493Z,41.37
2022-11-06T23:29:08.795Z,41.34
2022-11-06T23:36:49.271Z,41.36
2022-11-06T23:44:34.879Z,41.33
2022-11-06T23:52:25.032Z,41.35
2022-11-06T23:59:56.216Z,41.34
